sensor_id;sensor_type;location;lat;lon;timestamp;P1;durP1;ratioP1;P2;durP2;ratioP2
5137;SDS011;53959;53.626;11.410;2023-09-18T00:00:47;1457.40;;;805.80;;
5137;SDS011;53959;53.626;11.410;2023-09-18T00:03:15;1462.23;;;808.17;;
5137;SDS011;53959;53.626;11.410;2023-09-18T00:05:43;1457.07;;;804.50;;
5137;SDS011;53959;53.626;11.410;2023-09-18T00:08:08;1466.40;;;810.33;;
5137;SDS011;53959;53.626;11.410;2023-09-18T00:10:34;1469.57;;;811.60;;
5137;SDS011;53959;53.626;11.410;2023-09-18T00:12:59;1466.33;;;808.77;;
5137;SDS011;53959;53.626;11.410;2023-09-18T00:15:26;1462.90;;;807.80;;
5137;SDS011;53959;53.626;11.410;2023-09-18T00:17:52;1472.17;;;810.77;;
5137;SDS011;53959;53.626;11.410;2023-09-18T00:20:17;1463.50;;;805.90;;
5137;SDS011;53959;53.626;11.410;2023-09-18T00:22:43;1466.43;;;808.97;;
5137;SDS011;53959;53.626;11.410;2023-09-18T00:25:09;1471.73;;;811.33;;
5137;SDS011;53959;53.626;11.410;2023-09-18T00:27:34;1462.03;;;806.13;;
5137;SDS011;53959;53.626;11.410;2023-09-18T00:30:01;1465.40;;;806.93;;
5137;SDS011;53959;53.626;11.410;2023-09-18T00:32:28;1468.90;;;809.80;;
5137;SDS011;53959;53.626;11.410;2023-09-18T00:34:54;1466.10;;;807.50;;
5137;SDS011;53959;53.626;11.410;2023-09-18T00:37:20;1462.80;;;806.20;;
5137;SDS011;53959;53.626;11.410;2023-09-18T00:39:45;1465.97;;;807.53;;
5137;SDS011;53959;53.626;11.410;2023-09-18T00:42:10;1469.70;;;809.70;;
5137;SDS011;53959;53.626;11.410;2023-09-18T00:44:42;1467.97;;;809.13;;
5137;SDS011;53959;53.626;11.410;2023-09-18T00:47:07;1462.57;;;805.67;;
5137;SDS011;53959;53.626;11.410;2023-09-18T00:49:34;1469.57;;;809.53;;
5137;SDS011;53959;53.626;11.410;2023-09-18T00:52:02;1464.50;;;807.60;;
5137;SDS011;53959;53.626;11.410;2023-09-18T00:54:28;1463.77;;;808.50;;
5137;SDS011;53959;53.626;11.410;2023-09-18T00:56:56;1466.50;;;807.70;;
5137;SDS011;53959;53.626;11.410;2023-09-18T00:59:22;1460.00;;;805.73;;
5137;SDS011;53959;53.626;11.410;2023-09-18T01:01:48;1461.80;;;807.57;;
5137;SDS011;53959;53.626;11.410;2023-09-18T01:04:15;1463.87;;;807.33;;
5137;SDS011;53959;53.626;11.410;2023-09-18T01:06:42;1466.13;;;809.13;;
5137;SDS011;53959;53.626;11.410;2023-09-18T01:09:07;1462.97;;;808.50;;
5137;SDS011;53959;53.626;11.410;2023-09-18T01:14:35;1445.57;;;802.57;;
5137;SDS011;53959;53.626;11.410;2023-09-18T01:17:06;1460.03;;;806.80;;
5137;SDS011;53959;53.626;11.410;2023-09-18T01:19:39;1468.53;;;809.30;;
5137;SDS011;53959;53.626;11.410;2023-09-18T01:22:18;1467.70;;;809.77;;
5137;SDS011;53959;53.626;11.410;2023-09-18T01:24:45;1463.70;;;807.00;;
5137;SDS011;53959;53.626;11.410;2023-09-18T01:27:14;1467.00;;;808.70;;
5137;SDS011;53959;53.626;11.410;2023-09-18T01:29:44;1464.63;;;806.87;;
5137;SDS011;53959;53.626;11.410;2023-09-18T01:32:10;1467.07;;;808.47;;
5137;SDS011;53959;53.626;11.410;2023-09-18T01:34:46;1467.10;;;808.90;;
5137;SDS011;53959;53.626;11.410;2023-09-18T01:37:14;1460.40;;;806.70;;
5137;SDS011;53959;53.626;11.410;2023-09-18T01:39:42;1461.40;;;805.33;;
5137;SDS011;53959;53.626;11.410;2023-09-18T01:42:09;1468.73;;;809.20;;
5137;SDS011;53959;53.626;11.410;2023-09-18T01:44:35;1462.53;;;805.73;;
5137;SDS011;53959;53.626;11.410;2023-09-18T01:47:02;1459.00;;;804.63;;
5137;SDS011;53959;53.626;11.410;2023-09-18T01:49:37;1463.30;;;807.07;;
5137;SDS011;53959;53.626;11.410;2023-09-18T01:52:04;1466.50;;;807.87;;
5137;SDS011;53959;53.626;11.410;2023-09-18T01:54:32;1462.60;;;806.93;;
5137;SDS011;53959;53.626;11.410;2023-09-18T01:56:58;1468.00;;;808.53;;
5137;SDS011;53959;53.626;11.410;2023-09-18T01:59:24;1457.57;;;804.10;;
5137;SDS011;53959;53.626;11.410;2023-09-18T02:01:50;1469.77;;;810.20;;
5137;SDS011;53959;53.626;11.410;2023-09-18T02:04:16;1466.80;;;806.97;;
5137;SDS011;53959;53.626;11.410;2023-09-18T02:06:44;1460.53;;;805.37;;
5137;SDS011;53959;53.626;11.410;2023-09-18T02:09:10;1461.03;;;805.63;;
5137;SDS011;53959;53.626;11.410;2023-09-18T02:11:39;1469.73;;;809.30;;
5137;SDS011;53959;53.626;11.410;2023-09-18T02:14:06;1463.10;;;806.33;;
5137;SDS011;53959;53.626;11.410;2023-09-18T02:16:33;1466.77;;;805.80;;
5137;SDS011;53959;53.626;11.410;2023-09-18T02:18:59;1466.40;;;809.83;;
5137;SDS011;53959;53.626;11.410;2023-09-18T02:21:24;1468.47;;;808.07;;
5137;SDS011;53959;53.626;11.410;2023-09-18T02:23:51;1461.33;;;805.30;;
5137;SDS011;53959;53.626;11.410;2023-09-18T02:26:17;1465.70;;;807.60;;
5137;SDS011;53959;53.626;11.410;2023-09-18T02:28:45;1456.60;;;802.63;;
5137;SDS011;53959;53.626;11.410;2023-09-18T02:31:10;1461.07;;;804.70;;
5137;SDS011;53959;53.626;11.410;2023-09-18T02:33:36;1481.97;;;814.63;;
5137;SDS011;53959;53.626;11.410;2023-09-18T02:36:05;1474.10;;;809.73;;
5137;SDS011;53959;53.626;11.410;2023-09-18T02:38:31;1463.50;;;804.97;;
5137;SDS011;53959;53.626;11.410;2023-09-18T02:40:57;1466.60;;;806.90;;
5137;SDS011;53959;53.626;11.410;2023-09-18T02:43:23;1456.57;;;803.43;;
5137;SDS011;53959;53.626;11.410;2023-09-18T02:45:50;1472.23;;;811.63;;
5137;SDS011;53959;53.626;11.410;2023-09-18T02:48:16;1462.70;;;806.70;;
5137;SDS011;53959;53.626;11.410;2023-09-18T02:50:42;1463.50;;;806.20;;
5137;SDS011;53959;53.626;11.410;2023-09-18T02:53:09;1464.07;;;805.50;;
5137;SDS011;53959;53.626;11.410;2023-09-18T02:55:41;1463.23;;;806.43;;
5137;SDS011;53959;53.626;11.410;2023-09-18T02:58:07;1463.40;;;807.57;;
5137;SDS011;53959;53.626;11.410;2023-09-18T03:00:34;1458.80;;;804.57;;
5137;SDS011;53959;53.626;11.410;2023-09-18T03:02:59;1464.27;;;806.30;;
5137;SDS011;53959;53.626;11.410;2023-09-18T03:05:25;1470.17;;;806.80;;
5137;SDS011;53959;53.626;11.410;2023-09-18T03:07:51;1470.10;;;811.70;;
5137;SDS011;53959;53.626;11.410;2023-09-18T03:10:17;1462.30;;;806.87;;
5137;SDS011;53959;53.626;11.410;2023-09-18T03:12:47;1462.77;;;806.80;;
5137;SDS011;53959;53.626;11.410;2023-09-18T03:15:12;1460.33;;;805.67;;
5137;SDS011;53959;53.626;11.410;2023-09-18T03:17:38;1469.10;;;809.37;;
5137;SDS011;53959;53.626;11.410;2023-09-18T03:20:06;1466.67;;;806.00;;
5137;SDS011;53959;53.626;11.410;2023-09-18T03:22:32;1464.70;;;807.70;;
5137;SDS011;53959;53.626;11.410;2023-09-18T03:24:57;1459.30;;;805.13;;
5137;SDS011;53959;53.626;11.410;2023-09-18T03:27:23;1459.13;;;805.53;;
5137;SDS011;53959;53.626;11.410;2023-09-18T03:29:54;1454.13;;;805.00;;
5137;SDS011;53959;53.626;11.410;2023-09-18T03:32:20;1460.53;;;805.27;;
5137;SDS011;53959;53.626;11.410;2023-09-18T03:34:46;1464.53;;;808.77;;
5137;SDS011;53959;53.626;11.410;2023-09-18T03:37:11;1471.57;;;809.17;;
5137;SDS011;53959;53.626;11.410;2023-09-18T03:39:37;1465.97;;;805.23;;
5137;SDS011;53959;53.626;11.410;2023-09-18T03:42:02;1472.60;;;808.60;;
5137;SDS011;53959;53.626;11.410;2023-09-18T03:44:28;1471.43;;;808.20;;
5137;SDS011;53959;53.626;11.410;2023-09-18T03:46:53;1476.67;;;811.27;;
5137;SDS011;53959;53.626;11.410;2023-09-18T03:49:18;1466.53;;;806.03;;
5137;SDS011;53959;53.626;11.410;2023-09-18T03:51:44;1472.23;;;808.00;;
5137;SDS011;53959;53.626;11.410;2023-09-18T03:54:09;1476.87;;;810.37;;
5137;SDS011;53959;53.626;11.410;2023-09-18T03:56:35;1468.37;;;806.00;;
5137;SDS011;53959;53.626;11.410;2023-09-18T03:59:00;1464.87;;;805.03;;
5137;SDS011;53959;53.626;11.410;2023-09-18T04:01:26;1462.23;;;803.10;;
5137;SDS011;53959;53.626;11.410;2023-09-18T04:03:52;1476.67;;;809.23;;
5137;SDS011;53959;53.626;11.410;2023-09-18T04:06:20;1468.97;;;805.37;;
5137;SDS011;53959;53.626;11.410;2023-09-18T04:08:46;1474.60;;;807.93;;
5137;SDS011;53959;53.626;11.410;2023-09-18T04:11:11;1481.77;;;812.03;;
5137;SDS011;53959;53.626;11.410;2023-09-18T04:13:37;1475.07;;;809.70;;
5137;SDS011;53959;53.626;11.410;2023-09-18T04:16:03;1470.23;;;805.17;;
5137;SDS011;53959;53.626;11.410;2023-09-18T04:18:32;1466.17;;;806.90;;
5137;SDS011;53959;53.626;11.410;2023-09-18T04:20:58;1479.07;;;811.10;;
5137;SDS011;53959;53.626;11.410;2023-09-18T04:23:24;1469.53;;;806.87;;
5137;SDS011;53959;53.626;11.410;2023-09-18T04:25:51;1463.73;;;805.30;;
5137;SDS011;53959;53.626;11.410;2023-09-18T04:28:18;1471.60;;;809.17;;
5137;SDS011;53959;53.626;11.410;2023-09-18T04:30:45;1473.47;;;809.33;;
5137;SDS011;53959;53.626;11.410;2023-09-18T04:33:12;1475.17;;;808.83;;
5137;SDS011;53959;53.626;11.410;2023-09-18T04:35:39;1477.87;;;810.90;;
5137;SDS011;53959;53.626;11.410;2023-09-18T04:38:08;1475.30;;;808.80;;
5137;SDS011;53959;53.626;11.410;2023-09-18T04:40:35;1471.77;;;808.97;;
5137;SDS011;53959;53.626;11.410;2023-09-18T04:43:01;1457.87;;;805.10;;
5137;SDS011;53959;53.626;11.410;2023-09-18T04:45:29;1486.77;;;812.33;;
5137;SDS011;53959;53.626;11.410;2023-09-18T04:47:55;1445.57;;;800.63;;
5137;SDS011;53959;53.626;11.410;2023-09-18T04:50:21;1468.90;;;806.40;;
5137;SDS011;53959;53.626;11.410;2023-09-18T04:52:47;1473.33;;;808.77;;
5137;SDS011;53959;53.626;11.410;2023-09-18T04:55:14;1474.20;;;807.87;;
5137;SDS011;53959;53.626;11.410;2023-09-18T04:57:39;1467.27;;;804.93;;
5137;SDS011;53959;53.626;11.410;2023-09-18T05:00:05;1471.40;;;807.00;;
5137;SDS011;53959;53.626;11.410;2023-09-18T05:02:33;1464.80;;;804.83;;
5137;SDS011;53959;53.626;11.410;2023-09-18T05:04:59;1455.47;;;802.53;;
5137;SDS011;53959;53.626;11.410;2023-09-18T05:07:25;1473.90;;;809.80;;
5137;SDS011;53959;53.626;11.410;2023-09-18T05:09:51;1464.87;;;804.83;;
5137;SDS011;53959;53.626;11.410;2023-09-18T05:12:16;1465.93;;;806.40;;
5137;SDS011;53959;53.626;11.410;2023-09-18T05:14:42;1471.87;;;807.67;;
5137;SDS011;53959;53.626;11.410;2023-09-18T05:17:15;1463.93;;;804.17;;
5137;SDS011;53959;53.626;11.410;2023-09-18T05:19:41;1475.20;;;811.00;;
5137;SDS011;53959;53.626;11.410;2023-09-18T05:22:10;1477.10;;;808.10;;
5137;SDS011;53959;53.626;11.410;2023-09-18T05:24:36;1471.20;;;806.53;;
5137;SDS011;53959;53.626;11.410;2023-09-18T05:27:02;1456.27;;;803.20;;
5137;SDS011;53959;53.626;11.410;2023-09-18T05:29:28;1454.13;;;802.80;;
5137;SDS011;53959;53.626;11.410;2023-09-18T05:31:53;1466.23;;;807.57;;
5137;SDS011;53959;53.626;11.410;2023-09-18T05:34:19;1461.27;;;805.67;;
5137;SDS011;53959;53.626;11.410;2023-09-18T05:36:44;1462.60;;;804.47;;
5137;SDS011;53959;53.626;11.410;2023-09-18T05:39:10;1469.57;;;808.40;;
5137;SDS011;53959;53.626;11.410;2023-09-18T05:41:38;1465.93;;;807.27;;
5137;SDS011;53959;53.626;11.410;2023-09-18T05:44:06;1458.03;;;805.83;;
5137;SDS011;53959;53.626;11.410;2023-09-18T05:46:35;1456.90;;;804.67;;
5137;SDS011;53959;53.626;11.410;2023-09-18T05:49:01;1458.90;;;806.03;;
5137;SDS011;53959;53.626;11.410;2023-09-18T05:51:29;1451.40;;;802.50;;
5137;SDS011;53959;53.626;11.410;2023-09-18T05:53:56;1444.83;;;799.20;;
5137;SDS011;53959;53.626;11.410;2023-09-18T05:56:21;1453.03;;;802.87;;
5137;SDS011;53959;53.626;11.410;2023-09-18T05:58:48;1456.87;;;805.10;;
5137;SDS011;53959;53.626;11.410;2023-09-18T06:01:13;1454.53;;;803.53;;
5137;SDS011;53959;53.626;11.410;2023-09-18T06:03:38;1447.47;;;801.97;;
5137;SDS011;53959;53.626;11.410;2023-09-18T06:06:04;1452.23;;;804.33;;
5137;SDS011;53959;53.626;11.410;2023-09-18T06:08:30;1454.50;;;805.40;;
5137;SDS011;53959;53.626;11.410;2023-09-18T06:10:56;1465.60;;;808.83;;
5137;SDS011;53959;53.626;11.410;2023-09-18T06:13:24;1453.87;;;805.33;;
5137;SDS011;53959;53.626;11.410;2023-09-18T06:15:50;1455.93;;;803.87;;
5137;SDS011;53959;53.626;11.410;2023-09-18T06:18:17;1453.87;;;804.33;;
5137;SDS011;53959;53.626;11.410;2023-09-18T06:20:45;1454.33;;;803.90;;
5137;SDS011;53959;53.626;11.410;2023-09-18T06:23:11;1455.70;;;805.00;;
5137;SDS011;53959;53.626;11.410;2023-09-18T06:25:36;1447.97;;;800.57;;
5137;SDS011;53959;53.626;11.410;2023-09-18T06:28:03;1452.77;;;803.50;;
5137;SDS011;53959;53.626;11.410;2023-09-18T06:30:29;1456.50;;;806.27;;
5137;SDS011;53959;53.626;11.410;2023-09-18T06:32:56;1448.87;;;801.47;;
5137;SDS011;53959;53.626;11.410;2023-09-18T06:35:21;1456.47;;;805.67;;
5137;SDS011;53959;53.626;11.410;2023-09-18T06:37:47;1456.67;;;804.90;;
5137;SDS011;53959;53.626;11.410;2023-09-18T06:40:13;1452.27;;;803.00;;
5137;SDS011;53959;53.626;11.410;2023-09-18T06:42:38;1459.00;;;808.10;;
5137;SDS011;53959;53.626;11.410;2023-09-18T06:45:04;1464.20;;;808.97;;
5137;SDS011;53959;53.626;11.410;2023-09-18T06:47:32;1460.00;;;805.80;;
5137;SDS011;53959;53.626;11.410;2023-09-18T06:49:58;1520.03;;;817.90;;
5137;SDS011;53959;53.626;11.410;2023-09-18T06:52:25;1464.20;;;807.37;;
5137;SDS011;53959;53.626;11.410;2023-09-18T06:54:51;1455.67;;;805.27;;
5137;SDS011;53959;53.626;11.410;2023-09-18T06:57:17;1464.30;;;807.97;;
5137;SDS011;53959;53.626;11.410;2023-09-18T06:59:42;1456.63;;;804.53;;
5137;SDS011;53959;53.626;11.410;2023-09-18T07:02:08;1468.80;;;809.73;;
5137;SDS011;53959;53.626;11.410;2023-09-18T07:04:33;1467.43;;;811.23;;
5137;SDS011;53959;53.626;11.410;2023-09-18T07:06:59;1459.47;;;806.43;;
5137;SDS011;53959;53.626;11.410;2023-09-18T07:09:24;1460.43;;;806.20;;
5137;SDS011;53959;53.626;11.410;2023-09-18T07:11:51;1455.60;;;803.93;;
5137;SDS011;53959;53.626;11.410;2023-09-18T07:14:16;1460.43;;;806.27;;
5137;SDS011;53959;53.626;11.410;2023-09-18T07:16:42;1466.10;;;808.37;;
5137;SDS011;53959;53.626;11.410;2023-09-18T07:19:08;1459.30;;;804.27;;
5137;SDS011;53959;53.626;11.410;2023-09-18T07:21:36;1462.70;;;806.50;;
5137;SDS011;53959;53.626;11.410;2023-09-18T07:24:03;1471.67;;;810.03;;
5137;SDS011;53959;53.626;11.410;2023-09-18T07:26:28;1470.90;;;809.10;;
5137;SDS011;53959;53.626;11.410;2023-09-18T07:28:54;1476.57;;;813.70;;
5137;SDS011;53959;53.626;11.410;2023-09-18T07:31:19;1461.13;;;807.63;;
5137;SDS011;53959;53.626;11.410;2023-09-18T07:33:44;1468.20;;;808.60;;
5137;SDS011;53959;53.626;11.410;2023-09-18T07:36:10;1473.33;;;813.03;;
5137;SDS011;53959;53.626;11.410;2023-09-18T07:38:35;1465.67;;;808.37;;
5137;SDS011;53959;53.626;11.410;2023-09-18T07:41:02;1460.47;;;806.80;;
5137;SDS011;53959;53.626;11.410;2023-09-18T07:43:27;1472.93;;;811.57;;
5137;SDS011;53959;53.626;11.410;2023-09-18T07:45:52;1473.50;;;809.57;;
5137;SDS011;53959;53.626;11.410;2023-09-18T07:48:19;1468.20;;;806.67;;
5137;SDS011;53959;53.626;11.410;2023-09-18T07:50:45;1468.80;;;809.83;;
5137;SDS011;53959;53.626;11.410;2023-09-18T07:53:11;1474.73;;;811.60;;
5137;SDS011;53959;53.626;11.410;2023-09-18T07:55:37;1470.93;;;811.47;;
5137;SDS011;53959;53.626;11.410;2023-09-18T07:58:03;1481.13;;;814.37;;
5137;SDS011;53959;53.626;11.410;2023-09-18T08:00:29;1473.60;;;810.23;;
5137;SDS011;53959;53.626;11.410;2023-09-18T08:02:55;1470.10;;;808.33;;
5137;SDS011;53959;53.626;11.410;2023-09-18T08:05:26;1475.83;;;813.33;;
5137;SDS011;53959;53.626;11.410;2023-09-18T08:07:55;1469.03;;;810.03;;
5137;SDS011;53959;53.626;11.410;2023-09-18T08:10:21;1471.20;;;809.70;;
5137;SDS011;53959;53.626;11.410;2023-09-18T08:12:47;1478.50;;;813.23;;
5137;SDS011;53959;53.626;11.410;2023-09-18T08:15:13;1483.33;;;811.80;;
5137;SDS011;53959;53.626;11.410;2023-09-18T08:17:39;1475.40;;;808.07;;
5137;SDS011;53959;53.626;11.410;2023-09-18T08:20:06;1475.70;;;809.20;;
5137;SDS011;53959;53.626;11.410;2023-09-18T08:22:37;1485.43;;;813.63;;
5137;SDS011;53959;53.626;11.410;2023-09-18T08:25:03;1482.07;;;812.17;;
5137;SDS011;53959;53.626;11.410;2023-09-18T08:27:28;1482.43;;;814.43;;
5137;SDS011;53959;53.626;11.410;2023-09-18T08:29:54;1483.20;;;813.47;;
5137;SDS011;53959;53.626;11.410;2023-09-18T08:32:19;1490.87;;;816.50;;
5137;SDS011;53959;53.626;11.410;2023-09-18T08:34:44;1484.73;;;812.77;;
5137;SDS011;53959;53.626;11.410;2023-09-18T08:37:10;1479.13;;;811.37;;
5137;SDS011;53959;53.626;11.410;2023-09-18T08:39:35;1483.10;;;811.03;;
5137;SDS011;53959;53.626;11.410;2023-09-18T08:42:03;1496.77;;;813.03;;
5137;SDS011;53959;53.626;11.410;2023-09-18T08:44:30;1481.67;;;811.67;;
5137;SDS011;53959;53.626;11.410;2023-09-18T08:46:56;1477.87;;;809.23;;
5137;SDS011;53959;53.626;11.410;2023-09-18T08:49:22;1483.40;;;811.23;;
5137;SDS011;53959;53.626;11.410;2023-09-18T08:51:49;1485.10;;;812.83;;
5137;SDS011;53959;53.626;11.410;2023-09-18T08:54:15;1483.70;;;811.57;;
5137;SDS011;53959;53.626;11.410;2023-09-18T08:56:41;1494.07;;;815.60;;
5137;SDS011;53959;53.626;11.410;2023-09-18T08:59:06;1485.60;;;811.90;;
5137;SDS011;53959;53.626;11.410;2023-09-18T09:01:32;1484.07;;;804.70;;
5137;SDS011;53959;53.626;11.410;2023-09-18T09:03:57;1497.47;;;815.60;;
5137;SDS011;53959;53.626;11.410;2023-09-18T09:06:23;1481.27;;;809.97;;
5137;SDS011;53959;53.626;11.410;2023-09-18T09:08:49;1492.30;;;814.17;;
5137;SDS011;53959;53.626;11.410;2023-09-18T09:11:14;1480.13;;;810.43;;
5137;SDS011;53959;53.626;11.410;2023-09-18T09:13:40;1472.83;;;805.97;;
5137;SDS011;53959;53.626;11.410;2023-09-18T09:16:05;1489.50;;;810.97;;
5137;SDS011;53959;53.626;11.410;2023-09-18T09:18:30;1480.37;;;808.43;;
5137;SDS011;53959;53.626;11.410;2023-09-18T09:20:57;1495.37;;;814.60;;
5137;SDS011;53959;53.626;11.410;2023-09-18T09:23:25;1481.93;;;810.00;;
5137;SDS011;53959;53.626;11.410;2023-09-18T09:25:53;1478.70;;;809.50;;
5137;SDS011;53959;53.626;11.410;2023-09-18T09:28:31;1484.57;;;811.87;;
5137;SDS011;53959;53.626;11.410;2023-09-18T09:31:00;1482.93;;;810.77;;
5137;SDS011;53959;53.626;11.410;2023-09-18T09:33:27;1487.60;;;815.10;;
5137;SDS011;53959;53.626;11.410;2023-09-18T09:35:54;1480.87;;;810.27;;
5137;SDS011;53959;53.626;11.410;2023-09-18T09:38:22;1489.70;;;813.07;;
5137;SDS011;53959;53.626;11.410;2023-09-18T09:40:53;1481.97;;;812.87;;
5137;SDS011;53959;53.626;11.410;2023-09-18T09:43:19;1482.93;;;812.57;;
5137;SDS011;53959;53.626;11.410;2023-09-18T09:45:44;1499.17;;;817.30;;
5137;SDS011;53959;53.626;11.410;2023-09-18T09:48:11;1485.27;;;809.33;;
5137;SDS011;53959;53.626;11.410;2023-09-18T09:50:44;1495.40;;;812.50;;
5137;SDS011;53959;53.626;11.410;2023-09-18T09:53:13;1497.57;;;814.93;;
5137;SDS011;53959;53.626;11.410;2023-09-18T09:55:39;1500.30;;;814.57;;
5137;SDS011;53959;53.626;11.410;2023-09-18T09:58:06;1496.20;;;813.60;;
5137;SDS011;53959;53.626;11.410;2023-09-18T10:03:13;1486.63;;;812.87;;
5137;SDS011;53959;53.626;11.410;2023-09-18T10:05:41;1486.77;;;813.30;;
5137;SDS011;53959;53.626;11.410;2023-09-18T10:11:07;1468.20;;;806.03;;
5137;SDS011;53959;53.626;11.410;2023-09-18T10:16:25;1479.43;;;811.30;;
5137;SDS011;53959;53.626;11.410;2023-09-18T10:24:47;1475.07;;;808.73;;
5137;SDS011;53959;53.626;11.410;2023-09-18T10:27:19;1475.57;;;808.03;;
5137;SDS011;53959;53.626;11.410;2023-09-18T10:29:48;1487.60;;;813.40;;
5137;SDS011;53959;53.626;11.410;2023-09-18T10:32:14;1481.70;;;809.17;;
5137;SDS011;53959;53.626;11.410;2023-09-18T10:34:41;1492.47;;;813.83;;
5137;SDS011;53959;53.626;11.410;2023-09-18T10:37:07;1496.40;;;814.53;;
5137;SDS011;53959;53.626;11.410;2023-09-18T10:39:37;1486.90;;;810.23;;
5137;SDS011;53959;53.626;11.410;2023-09-18T10:42:04;1487.87;;;811.80;;
5137;SDS011;53959;53.626;11.410;2023-09-18T10:44:32;1487.77;;;812.90;;
5137;SDS011;53959;53.626;11.410;2023-09-18T10:46:58;1491.90;;;813.63;;
5137;SDS011;53959;53.626;11.410;2023-09-18T10:49:26;1489.57;;;813.63;;
5137;SDS011;53959;53.626;11.410;2023-09-18T10:51:55;1480.50;;;808.73;;
5137;SDS011;53959;53.626;11.410;2023-09-18T10:54:22;1482.80;;;809.80;;
5137;SDS011;53959;53.626;11.410;2023-09-18T10:56:48;1484.70;;;812.77;;
5137;SDS011;53959;53.626;11.410;2023-09-18T10:59:14;1483.00;;;810.90;;
5137;SDS011;53959;53.626;11.410;2023-09-18T11:01:40;1487.17;;;813.50;;
5137;SDS011;53959;53.626;11.410;2023-09-18T11:04:07;1482.33;;;812.37;;
5137;SDS011;53959;53.626;11.410;2023-09-18T11:09:25;1471.30;;;806.70;;
5137;SDS011;53959;53.626;11.410;2023-09-18T11:14:43;1474.67;;;807.40;;
5137;SDS011;53959;53.626;11.410;2023-09-18T11:20:08;1481.37;;;810.67;;
5137;SDS011;53959;53.626;11.410;2023-09-18T11:22:37;1482.60;;;810.80;;
5137;SDS011;53959;53.626;11.410;2023-09-18T11:28:08;1478.40;;;810.30;;
5137;SDS011;53959;53.626;11.410;2023-09-18T11:30:48;1476.93;;;806.63;;
5137;SDS011;53959;53.626;11.410;2023-09-18T11:33:15;1489.60;;;812.70;;
5137;SDS011;53959;53.626;11.410;2023-09-18T11:35:55;1482.10;;;810.57;;
5137;SDS011;53959;53.626;11.410;2023-09-18T11:38:21;1484.93;;;808.73;;
5137;SDS011;53959;53.626;11.410;2023-09-18T11:40:48;1486.00;;;809.83;;
5137;SDS011;53959;53.626;11.410;2023-09-18T11:45:59;1458.67;;;800.83;;
5137;SDS011;53959;53.626;11.410;2023-09-18T11:48:27;1480.30;;;810.77;;
5137;SDS011;53959;53.626;11.410;2023-09-18T11:50:54;1478.73;;;808.80;;
5137;SDS011;53959;53.626;11.410;2023-09-18T11:53:21;1476.97;;;807.60;;
5137;SDS011;53959;53.626;11.410;2023-09-18T11:55:48;1478.13;;;808.33;;
5137;SDS011;53959;53.626;11.410;2023-09-18T11:58:14;1482.70;;;810.63;;
5137;SDS011;53959;53.626;11.410;2023-09-18T12:00:40;1484.17;;;810.57;;
5137;SDS011;53959;53.626;11.410;2023-09-18T12:03:19;1484.80;;;811.37;;
5137;SDS011;53959;53.626;11.410;2023-09-18T12:05:57;1478.70;;;809.60;;
5137;SDS011;53959;53.626;11.410;2023-09-18T12:08:24;1489.37;;;811.37;;
5137;SDS011;53959;53.626;11.410;2023-09-18T12:10:54;1486.10;;;811.30;;
5137;SDS011;53959;53.626;11.410;2023-09-18T12:13:20;1486.10;;;809.67;;
5137;SDS011;53959;53.626;11.410;2023-09-18T12:15:47;1486.40;;;811.13;;
5137;SDS011;53959;53.626;11.410;2023-09-18T12:18:14;1490.80;;;812.40;;
5137;SDS011;53959;53.626;11.410;2023-09-18T12:20:46;1482.67;;;808.43;;
5137;SDS011;53959;53.626;11.410;2023-09-18T12:23:13;1477.00;;;807.30;;
5137;SDS011;53959;53.626;11.410;2023-09-18T12:25:39;1481.17;;;810.23;;
5137;SDS011;53959;53.626;11.410;2023-09-18T12:28:05;1485.40;;;811.20;;
5137;SDS011;53959;53.626;11.410;2023-09-18T12:30:32;1487.50;;;812.10;;
5137;SDS011;53959;53.626;11.410;2023-09-18T12:32:58;1486.13;;;812.10;;
5137;SDS011;53959;53.626;11.410;2023-09-18T12:35:26;1488.50;;;811.33;;
5137;SDS011;53959;53.626;11.410;2023-09-18T12:37:56;1498.87;;;815.63;;
5137;SDS011;53959;53.626;11.410;2023-09-18T12:40:30;1494.07;;;813.67;;
5137;SDS011;53959;53.626;11.410;2023-09-18T12:42:58;1492.50;;;812.13;;
5137;SDS011;53959;53.626;11.410;2023-09-18T12:45:24;1483.57;;;810.67;;
5137;SDS011;53959;53.626;11.410;2023-09-18T12:47:50;1482.10;;;807.60;;
5137;SDS011;53959;53.626;11.410;2023-09-18T12:50:17;1483.47;;;814.07;;
5137;SDS011;53959;53.626;11.410;2023-09-18T12:52:43;1483.57;;;814.33;;
5137;SDS011;53959;53.626;11.410;2023-09-18T12:55:20;1476.07;;;809.00;;
5137;SDS011;53959;53.626;11.410;2023-09-18T12:57:49;1463.73;;;804.40;;
5137;SDS011;53959;53.626;11.410;2023-09-18T13:00:17;1494.50;;;813.80;;
5137;SDS011;53959;53.626;11.410;2023-09-18T13:02:46;1477.33;;;806.60;;
5137;SDS011;53959;53.626;11.410;2023-09-18T13:05:11;1487.50;;;811.20;;
5137;SDS011;53959;53.626;11.410;2023-09-18T13:07:43;1493.80;;;814.80;;
5137;SDS011;53959;53.626;11.410;2023-09-18T13:10:10;1506.87;;;816.73;;
5137;SDS011;53959;53.626;11.410;2023-09-18T13:12:49;1507.07;;;816.90;;
5137;SDS011;53959;53.626;11.410;2023-09-18T13:15:32;1504.43;;;814.83;;
5137;SDS011;53959;53.626;11.410;2023-09-18T13:18:00;1500.67;;;816.03;;
5137;SDS011;53959;53.626;11.410;2023-09-18T13:20:33;1504.60;;;813.37;;
5137;SDS011;53959;53.626;11.410;2023-09-18T13:22:59;1508.97;;;817.63;;
5137;SDS011;53959;53.626;11.410;2023-09-18T13:25:34;1512.83;;;817.90;;
5137;SDS011;53959;53.626;11.410;2023-09-18T13:28:03;1481.93;;;809.13;;
5137;SDS011;53959;53.626;11.410;2023-09-18T13:30:33;1488.40;;;813.50;;
5137;SDS011;53959;53.626;11.410;2023-09-18T13:33:04;1489.17;;;815.43;;
5137;SDS011;53959;53.626;11.410;2023-09-18T13:35:37;1484.57;;;813.57;;
5137;SDS011;53959;53.626;11.410;2023-09-18T13:38:06;1488.57;;;813.00;;
5137;SDS011;53959;53.626;11.410;2023-09-18T13:40:42;1494.33;;;815.93;;
5137;SDS011;53959;53.626;11.410;2023-09-18T13:43:11;1482.30;;;811.87;;
5137;SDS011;53959;53.626;11.410;2023-09-18T13:45:37;1497.93;;;815.00;;
5137;SDS011;53959;53.626;11.410;2023-09-18T13:48:03;1481.50;;;811.77;;
5137;SDS011;53959;53.626;11.410;2023-09-18T13:50:29;1481.57;;;809.57;;
5137;SDS011;53959;53.626;11.410;2023-09-18T13:52:55;1487.87;;;815.67;;
5137;SDS011;53959;53.626;11.410;2023-09-18T13:55:20;1494.20;;;813.93;;
5137;SDS011;53959;53.626;11.410;2023-09-18T13:57:45;1481.43;;;810.57;;
5137;SDS011;53959;53.626;11.410;2023-09-18T14:00:11;1483.20;;;808.70;;
5137;SDS011;53959;53.626;11.410;2023-09-18T14:02:39;1486.20;;;812.47;;
5137;SDS011;53959;53.626;11.410;2023-09-18T14:05:05;1485.13;;;813.80;;
5137;SDS011;53959;53.626;11.410;2023-09-18T14:07:31;1483.27;;;811.80;;
5137;SDS011;53959;53.626;11.410;2023-09-18T14:09:57;1479.23;;;811.57;;
5137;SDS011;53959;53.626;11.410;2023-09-18T14:12:23;1474.27;;;806.67;;
5137;SDS011;53959;53.626;11.410;2023-09-18T14:14:49;1485.10;;;812.80;;